sensor_id;sensor_type;location;lat;lon;timestamp;P1;durP1;ratioP1;P2;durP2;ratioP2
35971;SDS011;22052;0.000;0.000;2023-03-11T00:02:08;5.65;;;1.90;;
35971;SDS011;22052;0.000;0.000;2023-03-11T00:04:34;7.57;;;2.20;;
35971;SDS011;22052;0.000;0.000;2023-03-11T00:07:00;8.43;;;2.00;;
35971;SDS011;22052;0.000;0.000;2023-03-11T00:09:26;8.20;;;2.42;;
35971;SDS011;22052;0.000;0.000;2023-03-11T00:11:53;4.78;;;1.83;;
35971;SDS011;22052;0.000;0.000;2023-03-11T00:14:19;4.90;;;1.75;;
35971;SDS011;22052;0.000;0.000;2023-03-11T00:16:45;5.95;;;1.98;;
35971;SDS011;22052;0.000;0.000;2023-03-11T00:19:11;6.72;;;2.22;;
35971;SDS011;22052;0.000;0.000;2023-03-11T00:21:37;7.53;;;2.15;;
35971;SDS011;22052;0.000;0.000;2023-03-11T00:24:04;8.57;;;2.03;;
35971;SDS011;22052;0.000;0.000;2023-03-11T00:26:30;6.93;;;2.13;;
35971;SDS011;22052;0.000;0.000;2023-03-11T00:28:56;6.47;;;1.90;;
35971;SDS011;22052;0.000;0.000;2023-03-11T00:31:22;8.32;;;2.20;;
35971;SDS011;22052;0.000;0.000;2023-03-11T00:33:51;5.05;;;1.75;;
35971;SDS011;22052;0.000;0.000;2023-03-11T00:36:21;7.18;;;1.70;;
35971;SDS011;22052;0.000;0.000;2023-03-11T00:38:48;6.68;;;2.10;;
35971;SDS011;22052;0.000;0.000;2023-03-11T00:41:14;5.70;;;1.83;;
35971;SDS011;22052;0.000;0.000;2023-03-11T00:43:41;5.05;;;1.70;;
35971;SDS011;22052;0.000;0.000;2023-03-11T00:46:08;4.90;;;1.83;;
35971;SDS011;22052;0.000;0.000;2023-03-11T00:48:34;6.68;;;1.77;;
35971;SDS011;22052;0.000;0.000;2023-03-11T00:51:00;7.25;;;2.38;;
35971;SDS011;22052;0.000;0.000;2023-03-11T00:53:26;4.57;;;1.90;;
35971;SDS011;22052;0.000;0.000;2023-03-11T00:55:52;7.82;;;2.10;;
35971;SDS011;22052;0.000;0.000;2023-03-11T00:58:18;5.32;;;1.98;;
35971;SDS011;22052;0.000;0.000;2023-03-11T01:00:46;6.43;;;1.73;;
35971;SDS011;22052;0.000;0.000;2023-03-11T01:03:13;7.80;;;1.85;;
35971;SDS011;22052;0.000;0.000;2023-03-11T01:05:39;4.65;;;1.88;;
35971;SDS011;22052;0.000;0.000;2023-03-11T01:08:05;5.95;;;2.00;;
35971;SDS011;22052;0.000;0.000;2023-03-11T01:10:32;4.18;;;1.73;;
35971;SDS011;22052;0.000;0.000;2023-03-11T01:12:58;4.40;;;2.00;;
35971;SDS011;22052;0.000;0.000;2023-03-11T01:15:29;5.50;;;1.70;;
35971;SDS011;22052;0.000;0.000;2023-03-11T01:17:55;4.70;;;1.70;;
35971;SDS011;22052;0.000;0.000;2023-03-11T01:20:22;5.05;;;1.70;;
35971;SDS011;22052;0.000;0.000;2023-03-11T01:22:48;2.85;;;1.58;;
35971;SDS011;22052;0.000;0.000;2023-03-11T01:25:15;5.38;;;2.13;;
35971;SDS011;22052;0.000;0.000;2023-03-11T01:27:41;4.35;;;2.13;;
35971;SDS011;22052;0.000;0.000;2023-03-11T01:30:08;5.07;;;1.80;;
35971;SDS011;22052;0.000;0.000;2023-03-11T01:32:34;5.03;;;1.73;;
35971;SDS011;22052;0.000;0.000;2023-03-11T01:35:01;5.97;;;1.80;;
35971;SDS011;22052;0.000;0.000;2023-03-11T01:37:27;7.28;;;2.08;;
35971;SDS011;22052;0.000;0.000;2023-03-11T01:39:53;5.53;;;1.83;;
35971;SDS011;22052;0.000;0.000;2023-03-11T01:42:19;5.45;;;1.70;;
35971;SDS011;22052;0.000;0.000;2023-03-11T01:44:45;3.30;;;1.67;;
35971;SDS011;22052;0.000;0.000;2023-03-11T01:49:38;4.47;;;1.88;;
35971;SDS011;22052;0.000;0.000;2023-03-11T01:52:06;5.07;;;1.70;;
35971;SDS011;22052;0.000;0.000;2023-03-11T01:54:34;4.80;;;1.77;;
35971;SDS011;22052;0.000;0.000;2023-03-11T01:57:01;3.53;;;1.55;;
35971;SDS011;22052;0.000;0.000;2023-03-11T01:59:31;5.10;;;1.73;;
35971;SDS011;22052;0.000;0.000;2023-03-11T02:02:04;3.75;;;1.40;;
35971;SDS011;22052;0.000;0.000;2023-03-11T02:04:32;3.95;;;1.67;;
35971;SDS011;22052;0.000;0.000;2023-03-11T02:06:58;4.38;;;1.80;;
35971;SDS011;22052;0.000;0.000;2023-03-11T02:09:26;3.60;;;1.80;;
35971;SDS011;22052;0.000;0.000;2023-03-11T02:11:52;4.95;;;1.70;;
35971;SDS011;22052;0.000;0.000;2023-03-11T02:14:18;4.13;;;1.70;;
35971;SDS011;22052;0.000;0.000;2023-03-11T02:16:45;5.55;;;1.60;;
35971;SDS011;22052;0.000;0.000;2023-03-11T02:19:20;4.28;;;1.48;;
35971;SDS011;22052;0.000;0.000;2023-03-11T02:21:48;5.63;;;1.60;;
35971;SDS011;22052;0.000;0.000;2023-03-11T02:24:20;5.95;;;2.13;;
35971;SDS011;22052;0.000;0.000;2023-03-11T02:29:13;4.28;;;1.90;;
35971;SDS011;22052;0.000;0.000;2023-03-11T02:31:40;4.75;;;1.65;;
35971;SDS011;22052;0.000;0.000;2023-03-11T02:34:08;4.80;;;1.50;;
35971;SDS011;22052;0.000;0.000;2023-03-11T02:36:38;4.32;;;2.03;;
35971;SDS011;22052;0.000;0.000;2023-03-11T02:39:05;4.95;;;1.63;;
35971;SDS011;22052;0.000;0.000;2023-03-11T02:41:32;3.72;;;1.50;;
35971;SDS011;22052;0.000;0.000;2023-03-11T02:43:59;2.90;;;1.50;;
35971;SDS011;22052;0.000;0.000;2023-03-11T02:46:26;3.35;;;1.60;;
35971;SDS011;22052;0.000;0.000;2023-03-11T02:48:52;3.30;;;1.63;;
35971;SDS011;22052;0.000;0.000;2023-03-11T02:51:19;3.35;;;1.60;;
35971;SDS011;22052;0.000;0.000;2023-03-11T02:53:46;3.95;;;1.80;;
35971;SDS011;22052;0.000;0.000;2023-03-11T02:56:13;3.70;;;1.45;;
35971;SDS011;22052;0.000;0.000;2023-03-11T02:58:39;2.47;;;1.42;;
35971;SDS011;22052;0.000;0.000;2023-03-11T03:01:05;3.97;;;1.60;;
35971;SDS011;22052;0.000;0.000;2023-03-11T03:03:31;3.75;;;1.50;;
35971;SDS011;22052;0.000;0.000;2023-03-11T03:05:58;4.35;;;1.58;;
35971;SDS011;22052;0.000;0.000;2023-03-11T03:08:24;3.63;;;1.58;;
35971;SDS011;22052;0.000;0.000;2023-03-11T03:10:50;3.42;;;1.50;;
35971;SDS011;22052;0.000;0.000;2023-03-11T03:13:17;4.30;;;1.65;;
35971;SDS011;22052;0.000;0.000;2023-03-11T03:15:43;5.28;;;1.85;;
35971;SDS011;22052;0.000;0.000;2023-03-11T03:18:10;4.03;;;1.80;;
35971;SDS011;22052;0.000;0.000;2023-03-11T03:20:36;3.85;;;1.48;;
35971;SDS011;22052;0.000;0.000;2023-03-11T03:23:02;4.10;;;1.60;;
35971;SDS011;22052;0.000;0.000;2023-03-11T03:25:28;4.20;;;1.58;;
35971;SDS011;22052;0.000;0.000;2023-03-11T03:27:54;3.72;;;1.70;;
35971;SDS011;22052;0.000;0.000;2023-03-11T03:30:20;3.00;;;1.35;;
35971;SDS011;22052;0.000;0.000;2023-03-11T03:32:46;3.53;;;1.55;;
35971;SDS011;22052;0.000;0.000;2023-03-11T03:35:13;3.45;;;1.60;;
35971;SDS011;22052;0.000;0.000;2023-03-11T03:37:39;3.90;;;1.60;;
35971;SDS011;22052;0.000;0.000;2023-03-11T03:40:05;4.63;;;1.70;;
35971;SDS011;22052;0.000;0.000;2023-03-11T03:42:33;2.92;;;1.42;;
35971;SDS011;22052;0.000;0.000;2023-03-11T03:44:59;2.97;;;1.52;;
35971;SDS011;22052;0.000;0.000;2023-03-11T03:47:25;5.10;;;1.70;;
35971;SDS011;22052;0.000;0.000;2023-03-11T03:49:51;3.42;;;1.48;;
35971;SDS011;22052;0.000;0.000;2023-03-11T03:52:17;4.45;;;1.65;;
35971;SDS011;22052;0.000;0.000;2023-03-11T03:54:44;3.03;;;1.58;;
35971;SDS011;22052;0.000;0.000;2023-03-11T03:57:10;2.92;;;1.48;;
35971;SDS011;22052;0.000;0.000;2023-03-11T03:59:36;4.72;;;1.48;;
35971;SDS011;22052;0.000;0.000;2023-03-11T04:02:02;4.80;;;1.77;;
35971;SDS011;22052;0.000;0.000;2023-03-11T04:04:28;3.30;;;1.67;;
35971;SDS011;22052;0.000;0.000;2023-03-11T04:06:54;3.47;;;1.50;;
35971;SDS011;22052;0.000;0.000;2023-03-11T04:09:21;4.03;;;1.58;;
35971;SDS011;22052;0.000;0.000;2023-03-11T04:11:47;3.40;;;1.65;;
35971;SDS011;22052;0.000;0.000;2023-03-11T04:14:13;3.72;;;1.60;;
35971;SDS011;22052;0.000;0.000;2023-03-11T04:16:39;3.75;;;1.67;;
35971;SDS011;22052;0.000;0.000;2023-03-11T04:19:06;3.22;;;1.40;;
35971;SDS011;22052;0.000;0.000;2023-03-11T04:21:32;3.67;;;1.70;;
35971;SDS011;22052;0.000;0.000;2023-03-11T04:23:58;2.95;;;1.40;;
35971;SDS011;22052;0.000;0.000;2023-03-11T04:26:24;3.33;;;1.50;;
35971;SDS011;22052;0.000;0.000;2023-03-11T04:28:52;3.63;;;1.73;;
35971;SDS011;22052;0.000;0.000;2023-03-11T04:31:18;3.13;;;1.50;;
35971;SDS011;22052;0.000;0.000;2023-03-11T04:33:44;3.63;;;1.40;;
35971;SDS011;22052;0.000;0.000;2023-03-11T04:36:11;3.45;;;1.55;;
35971;SDS011;22052;0.000;0.000;2023-03-11T04:38:37;3.38;;;1.45;;
35971;SDS011;22052;0.000;0.000;2023-03-11T04:41:04;3.70;;;1.58;;
35971;SDS011;22052;0.000;0.000;2023-03-11T04:43:30;3.65;;;1.75;;
35971;SDS011;22052;0.000;0.000;2023-03-11T04:45:57;2.88;;;1.35;;
35971;SDS011;22052;0.000;0.000;2023-03-11T04:48:23;3.72;;;1.70;;
35971;SDS011;22052;0.000;0.000;2023-03-11T04:50:51;4.95;;;1.90;;
35971;SDS011;22052;0.000;0.000;2023-03-11T04:53:17;3.28;;;1.30;;
35971;SDS011;22052;0.000;0.000;2023-03-11T04:55:43;4.15;;;1.70;;
35971;SDS011;22052;0.000;0.000;2023-03-11T04:58:11;3.92;;;1.50;;
35971;SDS011;22052;0.000;0.000;2023-03-11T05:00:38;4.22;;;1.70;;
35971;SDS011;22052;0.000;0.000;2023-03-11T05:03:05;3.67;;;1.70;;
35971;SDS011;22052;0.000;0.000;2023-03-11T05:05:31;3.67;;;1.75;;
35971;SDS011;22052;0.000;0.000;2023-03-11T05:07:57;3.25;;;1.55;;
35971;SDS011;22052;0.000;0.000;2023-03-11T05:10:23;3.05;;;1.70;;
35971;SDS011;22052;0.000;0.000;2023-03-11T05:12:50;4.07;;;1.80;;
35971;SDS011;22052;0.000;0.000;2023-03-11T05:15:16;3.50;;;1.50;;
35971;SDS011;22052;0.000;0.000;2023-03-11T05:17:42;3.15;;;1.27;;
35971;SDS011;22052;0.000;0.000;2023-03-11T05:20:09;2.78;;;1.50;;
35971;SDS011;22052;0.000;0.000;2023-03-11T05:22:35;3.55;;;1.65;;
35971;SDS011;22052;0.000;0.000;2023-03-11T05:25:01;4.28;;;1.70;;
35971;SDS011;22052;0.000;0.000;2023-03-11T05:27:28;3.70;;;1.80;;
35971;SDS011;22052;0.000;0.000;2023-03-11T05:29:54;3.15;;;1.48;;
35971;SDS011;22052;0.000;0.000;2023-03-11T05:32:20;2.83;;;1.45;;
35971;SDS011;22052;0.000;0.000;2023-03-11T05:34:46;4.05;;;1.55;;
35971;SDS011;22052;0.000;0.000;2023-03-11T05:37:12;3.58;;;1.33;;
35971;SDS011;22052;0.000;0.000;2023-03-11T05:39:39;2.65;;;1.30;;
35971;SDS011;22052;0.000;0.000;2023-03-11T05:42:05;2.10;;;1.23;;
35971;SDS011;22052;0.000;0.000;2023-03-11T05:44:31;2.72;;;1.50;;
35971;SDS011;22052;0.000;0.000;2023-03-11T05:46:58;2.75;;;1.40;;
35971;SDS011;22052;0.000;0.000;2023-03-11T05:49:24;3.20;;;1.60;;
35971;SDS011;22052;0.000;0.000;2023-03-11T05:51:50;3.45;;;1.50;;
35971;SDS011;22052;0.000;0.000;2023-03-11T05:54:18;3.47;;;1.35;;
35971;SDS011;22052;0.000;0.000;2023-03-11T05:56:45;2.72;;;1.45;;
35971;SDS011;22052;0.000;0.000;2023-03-11T05:59:12;2.40;;;1.23;;
35971;SDS011;22052;0.000;0.000;2023-03-11T06:01:39;2.67;;;1.40;;
35971;SDS011;22052;0.000;0.000;2023-03-11T06:04:07;3.38;;;1.40;;
35971;SDS011;22052;0.000;0.000;2023-03-11T06:06:33;3.35;;;1.75;;
35971;SDS011;22052;0.000;0.000;2023-03-11T06:08:59;2.63;;;1.45;;
35971;SDS011;22052;0.000;0.000;2023-03-11T06:11:26;3.10;;;1.35;;
35971;SDS011;22052;0.000;0.000;2023-03-11T06:13:53;3.47;;;1.45;;
35971;SDS011;22052;0.000;0.000;2023-03-11T06:16:19;3.30;;;1.58;;
35971;SDS011;22052;0.000;0.000;2023-03-11T06:18:45;4.25;;;1.50;;
35971;SDS011;22052;0.000;0.000;2023-03-11T06:21:15;3.17;;;1.42;;
35971;SDS011;22052;0.000;0.000;2023-03-11T06:23:42;2.40;;;1.30;;
35971;SDS011;22052;0.000;0.000;2023-03-11T06:26:09;3.17;;;1.60;;
35971;SDS011;22052;0.000;0.000;2023-03-11T06:28:37;3.30;;;1.50;;
35971;SDS011;22052;0.000;0.000;2023-03-11T06:31:07;2.90;;;1.50;;
35971;SDS011;22052;0.000;0.000;2023-03-11T06:33:33;3.95;;;1.60;;
35971;SDS011;22052;0.000;0.000;2023-03-11T06:36:00;3.33;;;1.48;;
35971;SDS011;22052;0.000;0.000;2023-03-11T06:38:26;2.90;;;1.52;;
35971;SDS011;22052;0.000;0.000;2023-03-11T06:40:52;4.10;;;2.00;;
35971;SDS011;22052;0.000;0.000;2023-03-11T06:43:20;4.05;;;1.70;;
35971;SDS011;22052;0.000;0.000;2023-03-11T06:45:46;3.33;;;1.58;;
35971;SDS011;22052;0.000;0.000;2023-03-11T06:48:13;3.03;;;1.63;;
35971;SDS011;22052;0.000;0.000;2023-03-11T06:50:39;3.83;;;1.50;;
35971;SDS011;22052;0.000;0.000;2023-03-11T06:53:05;3.20;;;1.75;;
35971;SDS011;22052;0.000;0.000;2023-03-11T06:55:32;4.35;;;1.77;;
35971;SDS011;22052;0.000;0.000;2023-03-11T06:57:58;2.60;;;1.30;;
35971;SDS011;22052;0.000;0.000;2023-03-11T07:00:24;2.92;;;1.48;;
35971;SDS011;22052;0.000;0.000;2023-03-11T07:02:50;3.50;;;1.70;;
35971;SDS011;22052;0.000;0.000;2023-03-11T07:05:16;4.07;;;1.70;;
35971;SDS011;22052;0.000;0.000;2023-03-11T07:07:43;2.60;;;1.40;;
35971;SDS011;22052;0.000;0.000;2023-03-11T07:10:09;3.10;;;1.58;;
35971;SDS011;22052;0.000;0.000;2023-03-11T07:12:35;3.10;;;1.50;;
35971;SDS011;22052;0.000;0.000;2023-03-11T07:15:03;4.07;;;1.80;;
35971;SDS011;22052;0.000;0.000;2023-03-11T07:17:29;4.72;;;1.90;;
35971;SDS011;22052;0.000;0.000;2023-03-11T07:19:55;2.63;;;1.50;;
35971;SDS011;22052;0.000;0.000;2023-03-11T07:22:21;2.75;;;1.50;;
35971;SDS011;22052;0.000;0.000;2023-03-11T07:24:48;3.15;;;1.60;;
35971;SDS011;22052;0.000;0.000;2023-03-11T07:27:14;2.85;;;1.40;;
35971;SDS011;22052;0.000;0.000;2023-03-11T07:29:41;3.17;;;1.50;;
35971;SDS011;22052;0.000;0.000;2023-03-11T07:32:07;2.72;;;1.45;;
35971;SDS011;22052;0.000;0.000;2023-03-11T07:34:33;3.78;;;1.40;;
35971;SDS011;22052;0.000;0.000;2023-03-11T07:36:59;4.20;;;1.50;;
35971;SDS011;22052;0.000;0.000;2023-03-11T07:39:26;3.15;;;1.55;;
35971;SDS011;22052;0.000;0.000;2023-03-11T07:41:52;3.22;;;1.65;;
35971;SDS011;22052;0.000;0.000;2023-03-11T07:44:18;2.75;;;1.35;;
35971;SDS011;22052;0.000;0.000;2023-03-11T07:46:45;2.92;;;1.42;;
35971;SDS011;22052;0.000;0.000;2023-03-11T07:49:11;2.25;;;1.20;;
35971;SDS011;22052;0.000;0.000;2023-03-11T07:51:38;3.58;;;1.60;;
35971;SDS011;22052;0.000;0.000;2023-03-11T07:54:08;2.67;;;1.40;;
35971;SDS011;22052;0.000;0.000;2023-03-11T07:56:34;2.55;;;1.50;;
35971;SDS011;22052;0.000;0.000;2023-03-11T07:59:01;2.10;;;1.23;;
35971;SDS011;22052;0.000;0.000;2023-03-11T08:01:28;3.78;;;1.20;;
35971;SDS011;22052;0.000;0.000;2023-03-11T08:04:00;3.92;;;1.63;;
35971;SDS011;22052;0.000;0.000;2023-03-11T08:06:27;2.63;;;1.38;;
35971;SDS011;22052;0.000;0.000;2023-03-11T08:08:55;3.05;;;1.70;;
35971;SDS011;22052;0.000;0.000;2023-03-11T08:11:22;2.92;;;1.50;;
35971;SDS011;22052;0.000;0.000;2023-03-11T08:13:48;2.38;;;1.40;;
35971;SDS011;22052;0.000;0.000;2023-03-11T08:16:16;3.05;;;1.67;;
35971;SDS011;22052;0.000;0.000;2023-03-11T08:18:42;2.30;;;1.38;;
35971;SDS011;22052;0.000;0.000;2023-03-11T08:21:11;3.28;;;1.50;;
35971;SDS011;22052;0.000;0.000;2023-03-11T08:23:37;2.90;;;1.50;;
35971;SDS011;22052;0.000;0.000;2023-03-11T08:26:04;3.28;;;1.58;;
35971;SDS011;22052;0.000;0.000;2023-03-11T08:28:31;2.92;;;1.50;;
35971;SDS011;22052;0.000;0.000;2023-03-11T08:30:57;2.85;;;1.30;;
35971;SDS011;22052;0.000;0.000;2023-03-11T08:33:24;3.30;;;1.60;;
35971;SDS011;22052;0.000;0.000;2023-03-11T08:35:50;2.88;;;1.30;;
35971;SDS011;22052;0.000;0.000;2023-03-11T08:38:16;2.33;;;1.27;;
35971;SDS011;22052;0.000;0.000;2023-03-11T08:40:42;3.55;;;1.60;;
35971;SDS011;22052;0.000;0.000;2023-03-11T08:43:11;3.35;;;1.40;;
35971;SDS011;22052;0.000;0.000;2023-03-11T08:45:41;2.42;;;1.40;;
35971;SDS011;22052;0.000;0.000;2023-03-11T08:48:08;3.00;;;1.33;;
35971;SDS011;22052;0.000;0.000;2023-03-11T08:50:35;2.70;;;1.52;;
35971;SDS011;22052;0.000;0.000;2023-03-11T08:53:01;2.40;;;1.20;;
35971;SDS011;22052;0.000;0.000;2023-03-11T08:55:28;2.63;;;1.50;;
35971;SDS011;22052;0.000;0.000;2023-03-11T08:57:54;2.53;;;1.48;;
35971;SDS011;22052;0.000;0.000;2023-03-11T09:00:21;2.67;;;1.60;;
35971;SDS011;22052;0.000;0.000;2023-03-11T09:02:47;2.25;;;1.25;;
35971;SDS011;22052;0.000;0.000;2023-03-11T09:05:14;2.35;;;1.38;;
35971;SDS011;22052;0.000;0.000;2023-03-11T09:07:40;3.13;;;1.60;;
35971;SDS011;22052;0.000;0.000;2023-03-11T09:10:06;2.75;;;1.30;;
35971;SDS011;22052;0.000;0.000;2023-03-11T09:12:33;2.88;;;1.27;;
35971;SDS011;22052;0.000;0.000;2023-03-11T09:14:59;2.00;;;1.20;;
35971;SDS011;22052;0.000;0.000;2023-03-11T09:17:25;2.22;;;1.20;;
35971;SDS011;22052;0.000;0.000;2023-03-11T09:19:51;3.05;;;1.10;;
35971;SDS011;22052;0.000;0.000;2023-03-11T09:22:17;2.63;;;1.27;;
35971;SDS011;22052;0.000;0.000;2023-03-11T09:24:44;2.60;;;1.30;;
35971;SDS011;22052;0.000;0.000;2023-03-11T09:27:10;2.58;;;1.40;;
35971;SDS011;22052;0.000;0.000;2023-03-11T09:29:37;2.30;;;1.25;;
35971;SDS011;22052;0.000;0.000;2023-03-11T09:32:03;2.38;;;1.40;;
35971;SDS011;22052;0.000;0.000;2023-03-11T09:34:30;3.58;;;1.40;;
35971;SDS011;22052;0.000;0.000;2023-03-11T09:36:56;1.92;;;1.30;;
35971;SDS011;22052;0.000;0.000;2023-03-11T09:39:22;2.30;;;1.35;;
35971;SDS011;22052;0.000;0.000;2023-03-11T09:41:51;2.22;;;1.27;;
35971;SDS011;22052;0.000;0.000;2023-03-11T09:44:20;2.25;;;1.20;;
35971;SDS011;22052;0.000;0.000;2023-03-11T09:52:36;4.45;;;1.38;;
35971;SDS011;22052;0.000;0.000;2023-03-11T09:55:06;2.05;;;1.33;;
35971;SDS011;22052;0.000;0.000;2023-03-11T09:57:37;2.65;;;1.38;;
35971;SDS011;22052;0.000;0.000;2023-03-11T10:00:04;2.47;;;1.25;;
35971;SDS011;22052;0.000;0.000;2023-03-11T10:02:31;3.08;;;1.40;;
35971;SDS011;22052;0.000;0.000;2023-03-11T10:04:59;2.97;;;1.13;;
35971;SDS011;22052;0.000;0.000;2023-03-11T10:07:33;3.65;;;1.42;;
35971;SDS011;22052;0.000;0.000;2023-03-11T10:10:01;2.30;;;1.30;;
35971;SDS011;22052;0.000;0.000;2023-03-11T10:12:32;2.13;;;1.30;;
35971;SDS011;22052;0.000;0.000;2023-03-11T10:15:06;2.13;;;1.48;;
35971;SDS011;22052;0.000;0.000;2023-03-11T10:28:11;2.72;;;1.33;;
35971;SDS011;22052;0.000;0.000;2023-03-11T10:35:37;2.45;;;1.35;;
35971;SDS011;22052;0.000;0.000;2023-03-11T10:41:01;2.33;;;1.10;;
35971;SDS011;22052;0.000;0.000;2023-03-11T10:43:31;2.15;;;1.25;;
35971;SDS011;22052;0.000;0.000;2023-03-11T10:45:58;2.75;;;1.23;;
35971;SDS011;22052;0.000;0.000;2023-03-11T10:48:24;3.10;;;1.23;;
35971;SDS011;22052;0.000;0.000;2023-03-11T10:51:00;1.95;;;1.00;;
35971;SDS011;22052;0.000;0.000;2023-03-11T10:53:27;2.53;;;1.23;;
35971;SDS011;22052;0.000;0.000;2023-03-11T10:55:56;2.60;;;1.20;;
35971;SDS011;22052;0.000;0.000;2023-03-11T10:58:23;2.60;;;1.10;;
35971;SDS011;22052;0.000;0.000;2023-03-11T11:03:25;2.22;;;1.17;;
35971;SDS011;22052;0.000;0.000;2023-03-11T11:06:04;2.22;;;1.02;;
35971;SDS011;22052;0.000;0.000;2023-03-11T11:08:32;2.38;;;1.00;;
35971;SDS011;22052;0.000;0.000;2023-03-11T11:10:59;2.22;;;1.13;;
35971;SDS011;22052;0.000;0.000;2023-03-11T11:13:29;1.45;;;1.00;;
35971;SDS011;22052;0.000;0.000;2023-03-11T11:21:02;2.03;;;1.03;;
35971;SDS011;22052;0.000;0.000;2023-03-11T11:23:33;2.38;;;1.13;;
35971;SDS011;22052;0.000;0.000;2023-03-11T11:26:02;4.03;;;1.10;;
35971;SDS011;22052;0.000;0.000;2023-03-11T11:28:29;1.88;;;1.10;;
35971;SDS011;22052;0.000;0.000;2023-03-11T11:30:57;2.38;;;1.27;;
35971;SDS011;22052;0.000;0.000;2023-03-11T11:33:28;2.03;;;1.10;;
35971;SDS011;22052;0.000;0.000;2023-03-11T11:35:56;3.40;;;1.27;;
35971;SDS011;22052;0.000;0.000;2023-03-11T11:38:23;1.52;;;0.82;;
35971;SDS011;22052;0.000;0.000;2023-03-11T11:40:50;2.90;;;1.20;;
35971;SDS011;22052;0.000;0.000;2023-03-11T11:46:57;2.42;;;1.25;;
35971;SDS011;22052;0.000;0.000;2023-03-11T11:54:00;2.33;;;0.82;;
35971;SDS011;22052;0.000;0.000;2023-03-11T11:56:26;2.03;;;1.10;;
35971;SDS011;22052;0.000;0.000;2023-03-11T11:58:53;2.25;;;0.90;;
35971;SDS011;22052;0.000;0.000;2023-03-11T12:14:37;1.55;;;1.00;;
35971;SDS011;22052;0.000;0.000;2023-03-11T12:17:06;1.77;;;1.02;;
35971;SDS011;22052;0.000;0.000;2023-03-11T12:19:35;1.90;;;1.13;;
35971;SDS011;22052;0.000;0.000;2023-03-11T12:24:42;1.33;;;0.88;;
35971;SDS011;22052;0.000;0.000;2023-03-11T12:27:17;1.50;;;0.90;;
35971;SDS011;22052;0.000;0.000;2023-03-11T12:29:45;2.10;;;1.13;;
35971;SDS011;22052;0.000;0.000;2023-03-11T12:32:19;1.83;;;0.93;;
35971;SDS011;22052;0.000;0.000;2023-03-11T12:34:46;1.20;;;0.80;;
35971;SDS011;22052;0.000;0.000;2023-03-11T12:37:12;2.08;;;1.10;;
35971;SDS011;22052;0.000;0.000;2023-03-11T12:39:41;1.60;;;1.00;;
35971;SDS011;22052;0.000;0.000;2023-03-11T12:44:36;3.15;;;1.15;;
35971;SDS011;22052;0.000;0.000;2023-03-11T12:49:39;2.72;;;1.00;;
35971;SDS011;22052;0.000;0.000;2023-03-11T12:59:53;1.48;;;0.95;;
35971;SDS011;22052;0.000;0.000;2023-03-11T13:04:58;1.80;;;0.93;;
35971;SDS011;22052;0.000;0.000;2023-03-11T13:07:44;1.50;;;0.90;;
35971;SDS011;22052;0.000;0.000;2023-03-11T13:25:36;2.20;;;1.00;;
35971;SDS011;22052;0.000;0.000;2023-03-11T13:30:55;1.42;;;0.73;;
35971;SDS011;22052;0.000;0.000;2023-03-11T13:36:13;1.48;;;0.88;;
35971;SDS011;22052;0.000;0.000;2023-03-11T13:38:56;1.73;;;1.00;;
35971;SDS011;22052;0.000;0.000;2023-03-11T13:41:28;2.58;;;0.90;;
35971;SDS011;22052;0.000;0.000;2023-03-11T13:43:56;1.65;;;0.80;;
35971;SDS011;22052;0.000;0.000;2023-03-11T13:48:52;2.25;;;0.88;;
35971;SDS011;22052;0.000;0.000;2023-03-11T13:51:23;1.70;;;0.93;;
35971;SDS011;22052;0.000;0.000;2023-03-11T13:53:54;1.50;;;0.88;;
35971;SDS011;22052;0.000;0.000;2023-03-11T13:56:25;1.48;;;0.90;;
35971;SDS011;22052;0.000;0.000;2023-03-11T13:58:52;1.55;;;0.80;;
35971;SDS011;22052;0.000;0.000;2023-03-11T14:01:19;1.85;;;1.00;;
35971;SDS011;22052;0.000;0.000;2023-03-11T14:03:45;1.23;;;0.70;;
35971;SDS011;22052;0.000;0.000;2023-03-11T14:06:13;1.02;;;0.80;;
35971;SDS011;22052;0.000;0.000;2023-03-11T14:08:40;2.03;;;1.00;;
35971;SDS011;22052;0.000;0.000;2023-03-11T14:13:42;2.72;;;0.93;;
35971;SDS011;22052;0.000;0.000;2023-03-11T14:16:28;1.40;;;0.75;;
35971;SDS011;22052;0.000;0.000;2023-03-11T14:21:27;2.05;;;0.90;;
35971;SDS011;22052;0.000;0.000;2023-03-11T14:23:57;1.50;;;0.90;;
35971;SDS011;22052;0.000;0.000;2023-03-11T14:26:33;1.60;;;0.90;;
35971;SDS011;22052;0.000;0.000;2023-03-11T14:29:01;1.40;;;0.90;;
35971;SDS011;22052;0.000;0.000;2023-03-11T14:31:33;1.55;;;0.90;;
35971;SDS011;22052;0.000;0.000;2023-03-11T14:34:01;1.17;;;0.70;;
35971;SDS011;22052;0.000;0.000;2023-03-11T14:36:47;1.17;;;0.80;;
35971;SDS011;22052;0.000;0.000;2023-03-11T14:41:48;1.55;;;1.05;;
35971;SDS011;22052;0.000;0.000;2023-03-11T14:44:15;1.20;;;0.90;;
35971;SDS011;22052;0.000;0.000;2023-03-11T14:46:42;1.55;;;0.80;;
35971;SDS011;22052;0.000;0.000;2023-03-11T14:49:11;1.10;;;0.70;;
35971;SDS011;22052;0.000;0.000;2023-03-11T14:51:39;0.98;;;0.73;;
35971;SDS011;22052;0.000;0.000;2023-03-11T14:54:07;1.23;;;0.70;;
35971;SDS011;22052;0.000;0.000;2023-03-11T14:59:07;1.30;;;0.80;;
35971;SDS011;22052;0.000;0.000;2023-03-11T15:01:37;1.60;;;0.95;;
35971;SDS011;22052;0.000;0.000;2023-03-11T15:04:11;1.45;;;0.85;;
35971;SDS011;22052;0.000;0.000;2023-03-11T15:06:38;1.30;;;0.80;;
35971;SDS011;22052;0.000;0.000;2023-03-11T15:09:15;1.25;;;1.00;;
35971;SDS011;22052;0.000;0.000;2023-03-11T15:11:44;1.40;;;0.90;;
35971;SDS011;22052;0.000;0.000;2023-03-11T15:14:32;1.52;;;0.90;;
35971;SDS011;22052;0.000;0.000;2023-03-11T15:17:17;1.38;;;0.82;;
35971;SDS011;22052;0.000;0.000;2023-03-11T15:19:43;1.15;;;0.73;;
35971;SDS011;22052;0.000;0.000;2023-03-11T15:22:26;1.15;;;0.90;;
35971;SDS011;22052;0.000;0.000;2023-03-11T15:24:57;1.10;;;0.70;;
35971;SDS011;22052;0.000;0.000;2023-03-11T15:29:53;1.10;;;0.80;;
35971;SDS011;22052;0.000;0.000;2023-03-11T15:37:32;1.48;;;0.82;;
35971;SDS011;22052;0.000;0.000;2023-03-11T15:40:16;1.85;;;0.88;;
35971;SDS011;22052;0.000;0.000;2023-03-11T15:42:43;1.75;;;0.95;;
35971;SDS011;22052;0.000;0.000;2023-03-11T15:45:14;1.02;;;0.80;;
35971;SDS011;22052;0.000;0.000;2023-03-11T15:47:41;1.20;;;0.85;;
35971;SDS011;22052;0.000;0.000;2023-03-11T15:50:21;0.70;;;0.65;;
35971;SDS011;22052;0.000;0.000;2023-03-11T15:52:48;1.48;;;0.93;;
35971;SDS011;22052;0.000;0.000;2023-03-11T15:55:15;0.88;;;0.65;;
35971;SDS011;22052;0.000;0.000;2023-03-11T15:57:43;1.13;;;0.70;;
35971;SDS011;22052;0.000;0.000;2023-03-11T16:00:13;1.30;;;0.75;;
35971;SDS011;22052;0.000;0.000;2023-03-11T16:02:40;1.27;;;0.80;;
35971;SDS011;22052;0.000;0.000;2023-03-11T16:05:20;1.33;;;0.90;;
35971;SDS011;22052;0.000;0.000;2023-03-11T16:07:46;0.90;;;0.73;;
35971;SDS011;22052;0.000;0.000;2023-03-11T16:10:14;1.17;;;0.70;;
35971;SDS011;22052;0.000;0.000;2023-03-11T16:12:40;1.02;;;0.68;;
35971;SDS011;22052;0.000;0.000;2023-03-11T16:17:41;1.15;;;0.70;;
35971;SDS011;22052;0.000;0.000;2023-03-11T16:20:08;1.17;;;0.70;;
35971;SDS011;22052;0.000;0.000;2023-03-11T16:22:34;1.98;;;0.90;;
35971;SDS011;22052;0.000;0.000;2023-03-11T16:25:01;0.95;;;0.73;;
35971;SDS011;22052;0.000;0.000;2023-03-11T16:27:28;1.13;;;0.68;;
35971;SDS011;22052;0.000;0.000;2023-03-11T16:29:55;0.90;;;0.80;;
35971;SDS011;22052;0.000;0.000;2023-03-11T16:32:21;0.90;;;0.60;;
35971;SDS011;22052;0.000;0.000;2023-03-11T16:34:47;1.00;;;0.65;;
35971;SDS011;22052;0.000;0.000;2023-03-11T16:37:14;1.05;;;0.75;;
35971;SDS011;22052;0.000;0.000;2023-03-11T16:39:44;1.10;;;0.73;;
35971;SDS011;22052;0.000;0.000;2023-03-11T16:42:11;1.13;;;0.80;;
35971;SDS011;22052;0.000;0.000;2023-03-11T16:44:37;1.35;;;0.90;;
35971;SDS011;22052;0.000;0.000;2023-03-11T16:47:03;0.95;;;0.75;;
35971;SDS011;22052;0.000;0.000;2023-03-11T16:49:29;1.10;;;0.80;;
35971;SDS011;22052;0.000;0.000;2023-03-11T16:51:56;0.70;;;0.63;;
35971;SDS011;22052;0.000;0.000;2023-03-11T16:54:22;1.20;;;0.80;;
35971;SDS011;22052;0.000;0.000;2023-03-11T16:56:48;1.38;;;0.82;;
35971;SDS011;22052;0.000;0.000;2023-03-11T16:59:14;1.23;;;0.88;;
35971;SDS011;22052;0.000;0.000;2023-03-11T17:01:40;0.98;;;0.70;;
35971;SDS011;22052;0.000;0.000;2023-03-11T17:04:06;1.27;;;0.70;;